sensor_id;sensor_type;location;lat;lon;timestamp;pressure;altitude;pressure_sealevel;temperature
76381;BMP280;65202;52.520;10.528;2023-05-09T00:01:46;101494.66;;;11.98
76381;BMP280;65202;52.520;10.528;2023-05-09T00:04:13;101494.59;;;11.97
76381;BMP280;65202;52.520;10.528;2023-05-09T00:06:42;101492.09;;;12.30
76381;BMP280;65202;52.520;10.528;2023-05-09T00:09:09;101492.22;;;12.33
76381;BMP280;65202;52.520;10.528;2023-05-09T00:11:36;101492.69;;;12.09
76381;BMP280;65202;52.520;10.528;2023-05-09T00:14:03;101494.09;;;12.37
76381;BMP280;65202;52.520;10.528;2023-05-09T00:16:30;101491.69;;;11.90
76381;BMP280;65202;52.520;10.528;2023-05-09T00:18:59;101491.56;;;11.87
76381;BMP280;65202;52.520;10.528;2023-05-09T00:21:26;101499.91;;;12.19
76381;BMP280;65202;52.520;10.528;2023-05-09T00:23:54;101493.97;;;12.34
76381;BMP280;65202;52.520;10.528;2023-05-09T00:26:21;101489.19;;;11.90
76381;BMP280;65202;52.520;10.528;2023-05-09T00:28:49;101483.97;;;11.85
76381;BMP280;65202;52.520;10.528;2023-05-09T00:31:16;101485.38;;;12.13
76381;BMP280;65202;52.520;10.528;2023-05-09T00:33:43;101490.84;;;11.73
76381;BMP280;65202;52.520;10.528;2023-05-09T00:36:10;101488.28;;;11.88
76381;BMP280;65202;52.520;10.528;2023-05-09T00:38:38;101480.69;;;12.03
76381;BMP280;65202;52.520;10.528;2023-05-09T00:41:05;101478.88;;;11.68
76381;BMP280;65202;52.520;10.528;2023-05-09T00:43:32;101481.44;;;11.53
76381;BMP280;65202;52.520;10.528;2023-05-09T00:45:59;101480.88;;;11.75
76381;BMP280;65202;52.520;10.528;2023-05-09T00:48:27;101476.81;;;11.61
76381;BMP280;65202;52.520;10.528;2023-05-09T00:50:54;101477.84;;;11.64
76381;BMP280;65202;52.520;10.528;2023-05-09T00:53:23;101474.00;;;11.71
76381;BMP280;65202;52.520;10.528;2023-05-09T00:55:52;101469.44;;;11.48
76381;BMP280;65202;52.520;10.528;2023-05-09T00:58:21;101469.09;;;11.56
76381;BMP280;65202;52.520;10.528;2023-05-09T01:00:49;101460.66;;;11.40
76381;BMP280;65202;52.520;10.528;2023-05-09T01:03:16;101458.97;;;11.25
76381;BMP280;65202;52.520;10.528;2023-05-09T01:08:51;101455.09;;;11.14
76381;BMP280;65202;52.520;10.528;2023-05-09T01:11:32;101449.38;;;11.16
76381;BMP280;65202;52.520;10.528;2023-05-09T01:14:15;101441.91;;;11.49
76381;BMP280;65202;52.520;10.528;2023-05-09T01:17:04;101441.06;;;11.49
76381;BMP280;65202;52.520;10.528;2023-05-09T01:19:53;101440.09;;;11.31
76381;BMP280;65202;52.520;10.528;2023-05-09T01:22:27;101422.91;;;11.53
76381;BMP280;65202;52.520;10.528;2023-05-09T01:25:31;101444.34;;;11.16
76381;BMP280;65202;52.520;10.528;2023-05-09T01:28:14;101430.44;;;11.69
76381;BMP280;65202;52.520;10.528;2023-05-09T01:30:52;101424.38;;;11.49
76381;BMP280;65202;52.520;10.528;2023-05-09T01:33:22;101431.78;;;11.00
76381;BMP280;65202;52.520;10.528;2023-05-09T01:35:57;101427.34;;;10.95
76381;BMP280;65202;52.520;10.528;2023-05-09T01:38:28;101423.59;;;11.19
76381;BMP280;65202;52.520;10.528;2023-05-09T01:40:59;101426.63;;;10.67
76381;BMP280;65202;52.520;10.528;2023-05-09T01:43:32;101425.06;;;10.69
76381;BMP280;65202;52.520;10.528;2023-05-09T01:45:59;101424.00;;;10.80
76381;BMP280;65202;52.520;10.528;2023-05-09T01:48:30;101422.22;;;10.93
76381;BMP280;65202;52.520;10.528;2023-05-09T01:50:58;101417.56;;;10.69
76381;BMP280;65202;52.520;10.528;2023-05-09T01:53:28;101414.50;;;10.59
76381;BMP280;65202;52.520;10.528;2023-05-09T01:55:57;101412.75;;;10.88
76381;BMP280;65202;52.520;10.528;2023-05-09T01:58:26;101408.94;;;10.64
76381;BMP280;65202;52.520;10.528;2023-05-09T02:00:54;101412.38;;;11.12
76381;BMP280;65202;52.520;10.528;2023-05-09T02:03:22;101412.91;;;10.61
76381;BMP280;65202;52.520;10.528;2023-05-09T02:05:52;101416.00;;;10.12
76381;BMP280;65202;52.520;10.528;2023-05-09T02:08:22;101415.81;;;10.38
76381;BMP280;65202;52.520;10.528;2023-05-09T02:10:49;101405.88;;;10.54
76381;BMP280;65202;52.520;10.528;2023-05-09T02:13:17;101407.41;;;10.66
76381;BMP280;65202;52.520;10.528;2023-05-09T02:15:45;101401.34;;;10.18
76381;BMP280;65202;52.520;10.528;2023-05-09T02:18:13;101404.81;;;10.20
76381;BMP280;65202;52.520;10.528;2023-05-09T02:20:40;101393.38;;;10.39
76381;BMP280;65202;52.520;10.528;2023-05-09T02:23:08;101404.34;;;10.27
76381;BMP280;65202;52.520;10.528;2023-05-09T02:25:35;101389.53;;;10.30
76381;BMP280;65202;52.520;10.528;2023-05-09T02:28:04;101385.28;;;10.29
76381;BMP280;65202;52.520;10.528;2023-05-09T02:30:38;101396.63;;;10.38
76381;BMP280;65202;52.520;10.528;2023-05-09T02:33:10;101394.19;;;10.24
76381;BMP280;65202;52.520;10.528;2023-05-09T02:35:41;101390.28;;;10.29
76381;BMP280;65202;52.520;10.528;2023-05-09T02:38:11;101386.19;;;10.45
76381;BMP280;65202;52.520;10.528;2023-05-09T02:40:41;101389.75;;;10.65
76381;BMP280;65202;52.520;10.528;2023-05-09T02:43:10;101392.72;;;10.13
76381;BMP280;65202;52.520;10.528;2023-05-09T02:45:37;101387.88;;;10.30
76381;BMP280;65202;52.520;10.528;2023-05-09T02:48:05;101393.47;;;10.12
76381;BMP280;65202;52.520;10.528;2023-05-09T02:50:35;101401.69;;;10.24
76381;BMP280;65202;52.520;10.528;2023-05-09T02:53:04;101393.97;;;10.35
76381;BMP280;65202;52.520;10.528;2023-05-09T02:55:32;101395.75;;;10.07
76381;BMP280;65202;52.520;10.528;2023-05-09T02:57:59;101390.69;;;9.93
76381;BMP280;65202;52.520;10.528;2023-05-09T03:00:41;101397.38;;;10.21
76381;BMP280;65202;52.520;10.528;2023-05-09T03:03:08;101386.84;;;9.98
76381;BMP280;65202;52.520;10.528;2023-05-09T03:05:36;101385.47;;;10.17
76381;BMP280;65202;52.520;10.528;2023-05-09T03:08:03;101382.34;;;9.93
76381;BMP280;65202;52.520;10.528;2023-05-09T03:10:31;101379.34;;;10.12
76381;BMP280;65202;52.520;10.528;2023-05-09T03:12:58;101378.63;;;9.57
76381;BMP280;65202;52.520;10.528;2023-05-09T03:15:25;101382.13;;;10.03
76381;BMP280;65202;52.520;10.528;2023-05-09T03:17:53;101374.94;;;9.94
76381;BMP280;65202;52.520;10.528;2023-05-09T03:20:20;101378.59;;;10.13
76381;BMP280;65202;52.520;10.528;2023-05-09T03:22:47;101373.97;;;10.21
76381;BMP280;65202;52.520;10.528;2023-05-09T03:25:14;101380.38;;;10.02
76381;BMP280;65202;52.520;10.528;2023-05-09T03:27:42;101367.00;;;10.30
76381;BMP280;65202;52.520;10.528;2023-05-09T03:30:10;101373.13;;;9.77
76381;BMP280;65202;52.520;10.528;2023-05-09T03:32:38;101367.06;;;9.59
76381;BMP280;65202;52.520;10.528;2023-05-09T03:35:06;101363.66;;;10.15
76381;BMP280;65202;52.520;10.528;2023-05-09T03:37:33;101375.53;;;9.61
76381;BMP280;65202;52.520;10.528;2023-05-09T03:40:00;101371.16;;;10.15
76381;BMP280;65202;52.520;10.528;2023-05-09T03:42:28;101371.91;;;9.71
76381;BMP280;65202;52.520;10.528;2023-05-09T03:44:55;101368.47;;;10.26
76381;BMP280;65202;52.520;10.528;2023-05-09T03:47:22;101372.28;;;10.20
76381;BMP280;65202;52.520;10.528;2023-05-09T03:49:49;101359.25;;;10.11
76381;BMP280;65202;52.520;10.528;2023-05-09T03:52:16;101367.41;;;9.94
76381;BMP280;65202;52.520;10.528;2023-05-09T03:54:44;101363.97;;;9.92
76381;BMP280;65202;52.520;10.528;2023-05-09T03:57:11;101366.75;;;9.82
76381;BMP280;65202;52.520;10.528;2023-05-09T03:59:38;101364.25;;;9.82
76381;BMP280;65202;52.520;10.528;2023-05-09T04:02:05;101360.09;;;9.97
76381;BMP280;65202;52.520;10.528;2023-05-09T04:04:32;101361.81;;;9.69
76381;BMP280;65202;52.520;10.528;2023-05-09T04:07:00;101356.88;;;10.28
76381;BMP280;65202;52.520;10.528;2023-05-09T04:09:27;101357.94;;;9.74
76381;BMP280;65202;52.520;10.528;2023-05-09T04:11:54;101360.09;;;9.97
76381;BMP280;65202;52.520;10.528;2023-05-09T04:14:21;101355.78;;;10.09
76381;BMP280;65202;52.520;10.528;2023-05-09T04:16:48;101355.03;;;10.10
76381;BMP280;65202;52.520;10.528;2023-05-09T04:19:16;101351.38;;;9.91
76381;BMP280;65202;52.520;10.528;2023-05-09T04:21:43;101349.31;;;9.55
76381;BMP280;65202;52.520;10.528;2023-05-09T04:24:10;101348.19;;;10.22
76381;BMP280;65202;52.520;10.528;2023-05-09T04:26:37;101362.56;;;10.26
76381;BMP280;65202;52.520;10.528;2023-05-09T04:29:05;101351.34;;;10.34
76381;BMP280;65202;52.520;10.528;2023-05-09T04:31:32;101358.25;;;9.95
76381;BMP280;65202;52.520;10.528;2023-05-09T04:33:59;101352.59;;;9.97
76381;BMP280;65202;52.520;10.528;2023-05-09T04:36:27;101348.03;;;10.19
76381;BMP280;65202;52.520;10.528;2023-05-09T04:38:54;101352.09;;;10.03
76381;BMP280;65202;52.520;10.528;2023-05-09T04:41:22;101345.88;;;10.10
76381;BMP280;65202;52.520;10.528;2023-05-09T04:43:49;101342.75;;;10.14
76381;BMP280;65202;52.520;10.528;2023-05-09T04:46:18;101341.28;;;10.18
76381;BMP280;65202;52.520;10.528;2023-05-09T04:48:45;101341.97;;;10.30
76381;BMP280;65202;52.520;10.528;2023-05-09T04:51:12;101337.94;;;10.17
76381;BMP280;65202;52.520;10.528;2023-05-09T04:53:39;101346.84;;;10.43
76381;BMP280;65202;52.520;10.528;2023-05-09T04:56:06;101343.50;;;10.58
76381;BMP280;65202;52.520;10.528;2023-05-09T04:58:34;101341.13;;;10.45
76381;BMP280;65202;52.520;10.528;2023-05-09T05:01:04;101342.34;;;10.83
76381;BMP280;65202;52.520;10.528;2023-05-09T05:03:32;101346.84;;;10.43
76381;BMP280;65202;52.520;10.528;2023-05-09T05:05:59;101337.38;;;11.15
76381;BMP280;65202;52.520;10.528;2023-05-09T05:08:26;101336.91;;;11.06
76381;BMP280;65202;52.520;10.528;2023-05-09T05:10:53;101342.53;;;10.86
76381;BMP280;65202;52.520;10.528;2023-05-09T05:13:21;101343.97;;;10.67
76381;BMP280;65202;52.520;10.528;2023-05-09T05:15:48;101333.75;;;11.10
76381;BMP280;65202;52.520;10.528;2023-05-09T05:18:16;101337.44;;;11.01
76381;BMP280;65202;52.520;10.528;2023-05-09T05:20:43;101337.72;;;11.38
76381;BMP280;65202;52.520;10.528;2023-05-09T05:23:10;101325.22;;;11.07
76381;BMP280;65202;52.520;10.528;2023-05-09T05:25:38;101325.59;;;11.30
76381;BMP280;65202;52.520;10.528;2023-05-09T05:28:05;101326.84;;;11.22
76381;BMP280;65202;52.520;10.528;2023-05-09T05:30:32;101333.25;;;11.49
76381;BMP280;65202;52.520;10.528;2023-05-09T05:33:00;101322.66;;;11.38
76381;BMP280;65202;52.520;10.528;2023-05-09T05:35:27;101325.03;;;11.51
76381;BMP280;65202;52.520;10.528;2023-05-09T05:37:55;101311.94;;;11.57
76381;BMP280;65202;52.520;10.528;2023-05-09T05:40:22;101314.75;;;11.47
76381;BMP280;65202;52.520;10.528;2023-05-09T05:42:49;101306.22;;;11.59
76381;BMP280;65202;52.520;10.528;2023-05-09T05:45:16;101302.66;;;11.72
76381;BMP280;65202;52.520;10.528;2023-05-09T05:47:44;101296.69;;;11.70
76381;BMP280;65202;52.520;10.528;2023-05-09T05:50:11;101292.56;;;11.88
76381;BMP280;65202;52.520;10.528;2023-05-09T05:52:39;101298.66;;;12.10
76381;BMP280;65202;52.520;10.528;2023-05-09T05:55:07;101293.97;;;11.83
76381;BMP280;65202;52.520;10.528;2023-05-09T05:57:35;101290.03;;;11.88
76381;BMP280;65202;52.520;10.528;2023-05-09T06:00:05;101298.97;;;12.17
76381;BMP280;65202;52.520;10.528;2023-05-09T06:02:36;101296.75;;;12.23
76381;BMP280;65202;52.520;10.528;2023-05-09T06:05:04;101290.72;;;12.56
76381;BMP280;65202;52.520;10.528;2023-05-09T06:07:32;101279.09;;;12.58
76381;BMP280;65202;52.520;10.528;2023-05-09T06:10:00;101283.78;;;12.87
76381;BMP280;65202;52.520;10.528;2023-05-09T06:12:27;101279.44;;;12.84
76381;BMP280;65202;52.520;10.528;2023-05-09T06:14:54;101271.56;;;13.15
76381;BMP280;65202;52.520;10.528;2023-05-09T06:17:21;101268.47;;;13.20
76381;BMP280;65202;52.520;10.528;2023-05-09T06:19:48;101274.66;;;13.08
76381;BMP280;65202;52.520;10.528;2023-05-09T06:22:16;101271.91;;;13.42
76381;BMP280;65202;52.520;10.528;2023-05-09T06:24:43;101268.06;;;13.50
76381;BMP280;65202;52.520;10.528;2023-05-09T06:27:10;101261.47;;;13.33
76381;BMP280;65202;52.520;10.528;2023-05-09T06:29:37;101262.72;;;13.43
76381;BMP280;65202;52.520;10.528;2023-05-09T06:32:04;101258.44;;;13.40
76381;BMP280;65202;52.520;10.528;2023-05-09T06:34:31;101257.28;;;13.53
76381;BMP280;65202;52.520;10.528;2023-05-09T06:36:59;101246.81;;;13.64
76381;BMP280;65202;52.520;10.528;2023-05-09T06:39:26;101252.41;;;13.57
76381;BMP280;65202;52.520;10.528;2023-05-09T06:41:53;101249.50;;;13.69
76381;BMP280;65202;52.520;10.528;2023-05-09T06:44:20;101248.03;;;13.74
76381;BMP280;65202;52.520;10.528;2023-05-09T06:46:47;101247.81;;;13.68
76381;BMP280;65202;52.520;10.528;2023-05-09T06:49:15;101257.00;;;13.67
76381;BMP280;65202;52.520;10.528;2023-05-09T06:51:42;101242.34;;;13.99
76381;BMP280;65202;52.520;10.528;2023-05-09T06:54:09;101244.91;;;14.01
76381;BMP280;65202;52.520;10.528;2023-05-09T06:56:36;101228.09;;;14.00
76381;BMP280;65202;52.520;10.528;2023-05-09T06:59:03;101229.81;;;14.01
76381;BMP280;65202;52.520;10.528;2023-05-09T07:01:31;101224.91;;;14.04
76381;BMP280;65202;52.520;10.528;2023-05-09T07:03:58;101221.16;;;14.37
76381;BMP280;65202;52.520;10.528;2023-05-09T07:06:25;101220.88;;;14.29
76381;BMP280;65202;52.520;10.528;2023-05-09T07:08:53;101220.34;;;14.61
76381;BMP280;65202;52.520;10.528;2023-05-09T07:11:20;101218.41;;;14.54
76381;BMP280;65202;52.520;10.528;2023-05-09T07:13:48;101213.09;;;14.70
76381;BMP280;65202;52.520;10.528;2023-05-09T07:16:15;101219.03;;;14.48
76381;BMP280;65202;52.520;10.528;2023-05-09T07:18:44;101207.44;;;14.75
76381;BMP280;65202;52.520;10.528;2023-05-09T07:21:11;101208.88;;;14.94
76381;BMP280;65202;52.520;10.528;2023-05-09T07:23:38;101217.59;;;14.78
76381;BMP280;65202;52.520;10.528;2023-05-09T07:26:05;101206.84;;;15.07
76381;BMP280;65202;52.520;10.528;2023-05-09T07:28:33;101210.59;;;14.95
76381;BMP280;65202;52.520;10.528;2023-05-09T07:31:00;101199.25;;;15.07
76381;BMP280;65202;52.520;10.528;2023-05-09T07:33:27;101197.00;;;15.39
76381;BMP280;65202;52.520;10.528;2023-05-09T07:35:54;101199.34;;;15.87
76381;BMP280;65202;52.520;10.528;2023-05-09T07:38:23;101195.44;;;16.85
76381;BMP280;65202;52.520;10.528;2023-05-09T07:40:50;101184.00;;;18.45
76381;BMP280;65202;52.520;10.528;2023-05-09T07:43:19;101178.31;;;19.02
76381;BMP280;65202;52.520;10.528;2023-05-09T07:45:46;101163.72;;;19.40
76381;BMP280;65202;52.520;10.528;2023-05-09T07:48:13;101167.75;;;19.27
76381;BMP280;65202;52.520;10.528;2023-05-09T07:50:40;101160.03;;;20.41
76381;BMP280;65202;52.520;10.528;2023-05-09T07:53:07;101145.97;;;20.73
76381;BMP280;65202;52.520;10.528;2023-05-09T07:55:35;101149.81;;;20.38
76381;BMP280;65202;52.520;10.528;2023-05-09T07:58:02;101145.03;;;20.65
76381;BMP280;65202;52.520;10.528;2023-05-09T08:00:30;101145.50;;;21.15
76381;BMP280;65202;52.520;10.528;2023-05-09T08:02:58;101129.97;;;22.16
76381;BMP280;65202;52.520;10.528;2023-05-09T08:05:25;101126.63;;;22.27
76381;BMP280;65202;52.520;10.528;2023-05-09T08:07:52;101122.47;;;22.80
76381;BMP280;65202;52.520;10.528;2023-05-09T08:10:20;101117.09;;;21.88
76381;BMP280;65202;52.520;10.528;2023-05-09T08:12:48;101115.53;;;22.24
76381;BMP280;65202;52.520;10.528;2023-05-09T08:15:16;101109.53;;;22.01
76381;BMP280;65202;52.520;10.528;2023-05-09T08:17:43;101106.03;;;21.81
76381;BMP280;65202;52.520;10.528;2023-05-09T08:20:11;101107.06;;;22.29
76381;BMP280;65202;52.520;10.528;2023-05-09T08:22:39;101096.94;;;22.71
76381;BMP280;65202;52.520;10.528;2023-05-09T08:25:07;101091.78;;;23.51
76381;BMP280;65202;52.520;10.528;2023-05-09T08:27:34;101083.13;;;23.94
76381;BMP280;65202;52.520;10.528;2023-05-09T08:30:01;101083.31;;;23.23
76381;BMP280;65202;52.520;10.528;2023-05-09T08:32:29;101083.25;;;23.52
76381;BMP280;65202;52.520;10.528;2023-05-09T08:34:56;101079.84;;;23.56
76381;BMP280;65202;52.520;10.528;2023-05-09T08:37:23;101069.25;;;24.32
76381;BMP280;65202;52.520;10.528;2023-05-09T08:39:51;101064.47;;;23.71
76381;BMP280;65202;52.520;10.528;2023-05-09T08:42:21;101066.28;;;22.98
76381;BMP280;65202;52.520;10.528;2023-05-09T08:44:52;101061.94;;;23.56
76381;BMP280;65202;52.520;10.528;2023-05-09T08:47:20;101064.59;;;23.06
76381;BMP280;65202;52.520;10.528;2023-05-09T08:49:50;101062.03;;;22.67
76381;BMP280;65202;52.520;10.528;2023-05-09T08:52:17;101056.56;;;24.16
76381;BMP280;65202;52.520;10.528;2023-05-09T08:54:45;101047.53;;;23.38
76381;BMP280;65202;52.520;10.528;2023-05-09T08:57:12;101042.91;;;24.21
76381;BMP280;65202;52.520;10.528;2023-05-09T08:59:41;101044.03;;;23.59
76381;BMP280;65202;52.520;10.528;2023-05-09T09:02:10;101020.88;;;25.04
76381;BMP280;65202;52.520;10.528;2023-05-09T09:04:40;101022.16;;;24.62
76381;BMP280;65202;52.520;10.528;2023-05-09T09:07:08;101017.34;;;25.20
76381;BMP280;65202;52.520;10.528;2023-05-09T09:09:36;101026.25;;;24.79
76381;BMP280;65202;52.520;10.528;2023-05-09T09:12:06;101031.91;;;24.03
76381;BMP280;65202;52.520;10.528;2023-05-09T09:14:37;101020.53;;;24.50
76381;BMP280;65202;52.520;10.528;2023-05-09T09:17:09;101027.44;;;24.36
76381;BMP280;65202;52.520;10.528;2023-05-09T09:19:42;101014.25;;;24.85
76381;BMP280;65202;52.520;10.528;2023-05-09T09:22:13;101014.28;;;23.45
76381;BMP280;65202;52.520;10.528;2023-05-09T09:24:41;101008.56;;;24.52
76381;BMP280;65202;52.520;10.528;2023-05-09T09:27:09;101016.84;;;23.35
76381;BMP280;65202;52.520;10.528;2023-05-09T09:29:36;101011.63;;;23.64
76381;BMP280;65202;52.520;10.528;2023-05-09T09:32:05;101016.06;;;22.97
76381;BMP280;65202;52.520;10.528;2023-05-09T09:34:32;101005.97;;;25.41
76381;BMP280;65202;52.520;10.528;2023-05-09T09:37:00;101009.72;;;24.08
76381;BMP280;65202;52.520;10.528;2023-05-09T09:39:27;100986.00;;;25.68
76381;BMP280;65202;52.520;10.528;2023-05-09T09:41:54;100995.03;;;25.28
76381;BMP280;65202;52.520;10.528;2023-05-09T09:44:21;100987.13;;;24.67
76381;BMP280;65202;52.520;10.528;2023-05-09T09:46:50;100988.16;;;24.46
76381;BMP280;65202;52.520;10.528;2023-05-09T09:49:24;100982.44;;;25.10
76381;BMP280;65202;52.520;10.528;2023-05-09T09:51:56;100985.22;;;24.83
76381;BMP280;65202;52.520;10.528;2023-05-09T09:54:27;100980.88;;;24.90
76381;BMP280;65202;52.520;10.528;2023-05-09T09:56:54;100988.13;;;25.33
76381;BMP280;65202;52.520;10.528;2023-05-09T09:59:24;100973.47;;;24.68
76381;BMP280;65202;52.520;10.528;2023-05-09T10:02:00;100980.66;;;24.18
76381;BMP280;65202;52.520;10.528;2023-05-09T10:04:34;100986.91;;;23.69
76381;BMP280;65202;52.520;10.528;2023-05-09T10:07:04;100983.19;;;24.21
76381;BMP280;65202;52.520;10.528;2023-05-09T10:09:34;100953.88;;;24.61
76381;BMP280;65202;52.520;10.528;2023-05-09T10:12:06;100961.38;;;24.78
76381;BMP280;65202;52.520;10.528;2023-05-09T10:14:35;100972.41;;;23.80
76381;BMP280;65202;52.520;10.528;2023-05-09T10:17:04;100953.22;;;25.25
76381;BMP280;65202;52.520;10.528;2023-05-09T10:19:32;100955.97;;;24.10
76381;BMP280;65202;52.520;10.528;2023-05-09T10:22:04;100952.28;;;22.73
76381;BMP280;65202;52.520;10.528;2023-05-09T10:24:34;100946.97;;;23.50
76381;BMP280;65202;52.520;10.528;2023-05-09T10:27:10;100928.84;;;23.94
76381;BMP280;65202;52.520;10.528;2023-05-09T10:29:45;100933.03;;;24.02
76381;BMP280;65202;52.520;10.528;2023-05-09T10:35:19;100927.97;;;23.93
76381;BMP280;65202;52.520;10.528;2023-05-09T10:37:54;100920.38;;;23.84
76381;BMP280;65202;52.520;10.528;2023-05-09T10:40:26;100921.97;;;24.02
76381;BMP280;65202;52.520;10.528;2023-05-09T10:42:54;100911.94;;;23.69
76381;BMP280;65202;52.520;10.528;2023-05-09T10:45:21;100921.19;;;23.89
76381;BMP280;65202;52.520;10.528;2023-05-09T10:47:50;100913.63;;;23.67
76381;BMP280;65202;52.520;10.528;2023-05-09T10:50:19;100908.72;;;23.39
76381;BMP280;65202;52.520;10.528;2023-05-09T10:58:30;100882.78;;;23.95
76381;BMP280;65202;52.520;10.528;2023-05-09T11:01:00;100881.31;;;23.58
76381;BMP280;65202;52.520;10.528;2023-05-09T11:03:51;100886.38;;;23.64
76381;BMP280;65202;52.520;10.528;2023-05-09T11:09:27;100865.16;;;23.52
76381;BMP280;65202;52.520;10.528;2023-05-09T11:12:09;100855.94;;;23.30
76381;BMP280;65202;52.520;10.528;2023-05-09T11:14:42;100855.16;;;23.15
76381;BMP280;65202;52.520;10.528;2023-05-09T11:17:13;100858.44;;;23.39
76381;BMP280;65202;52.520;10.528;2023-05-09T11:19:58;100855.22;;;22.97
76381;BMP280;65202;52.520;10.528;2023-05-09T11:22:29;100842.25;;;23.42
76381;BMP280;65202;52.520;10.528;2023-05-09T11:25:01;100842.47;;;23.07
76381;BMP280;65202;52.520;10.528;2023-05-09T11:27:39;100844.63;;;23.65
76381;BMP280;65202;52.520;10.528;2023-05-09T11:30:14;100837.81;;;23.72
76381;BMP280;65202;52.520;10.528;2023-05-09T11:32:51;100826.00;;;23.51
76381;BMP280;65202;52.520;10.528;2023-05-09T11:35:22;100834.88;;;22.81
76381;BMP280;65202;52.520;10.528;2023-05-09T11:37:53;100814.13;;;23.45
76381;BMP280;65202;52.520;10.528;2023-05-09T11:40:27;100827.13;;;23.06
76381;BMP280;65202;52.520;10.528;2023-05-09T11:42:56;100810.56;;;23.66
76381;BMP280;65202;52.520;10.528;2023-05-09T11:45:26;100802.16;;;23.49
76381;BMP280;65202;52.520;10.528;2023-05-09T11:47:58;100803.44;;;24.04
76381;BMP280;65202;52.520;10.528;2023-05-09T11:50:29;100786.88;;;23.42
76381;BMP280;65202;52.520;10.528;2023-05-09T11:52:57;100797.38;;;22.97
76381;BMP280;65202;52.520;10.528;2023-05-09T11:55:24;100794.16;;;22.52
76381;BMP280;65202;52.520;10.528;2023-05-09T11:57:54;100790.41;;;23.23
76381;BMP280;65202;52.520;10.528;2023-05-09T12:00:22;100796.59;;;22.73
76381;BMP280;65202;52.520;10.528;2023-05-09T12:02:51;100782.72;;;23.28
76381;BMP280;65202;52.520;10.528;2023-05-09T12:05:21;100786.53;;;22.45
76381;BMP280;65202;52.520;10.528;2023-05-09T12:07:49;100782.16;;;22.74
76381;BMP280;65202;52.520;10.528;2023-05-09T12:10:19;100776.06;;;23.07
76381;BMP280;65202;52.520;10.528;2023-05-09T12:12:52;100780.56;;;22.41
76381;BMP280;65202;52.520;10.528;2023-05-09T12:15:21;100766.72;;;22.93
76381;BMP280;65202;52.520;10.528;2023-05-09T12:18:03;100773.38;;;23.27
76381;BMP280;65202;52.520;10.528;2023-05-09T12:20:47;100764.28;;;22.74
76381;BMP280;65202;52.520;10.528;2023-05-09T12:23:17;100747.97;;;23.09
76381;BMP280;65202;52.520;10.528;2023-05-09T12:25:55;100746.41;;;22.81
76381;BMP280;65202;52.520;10.528;2023-05-09T12:28:24;100732.47;;;23.30
76381;BMP280;65202;52.520;10.528;2023-05-09T12:30:52;100735.81;;;23.38
76381;BMP280;65202;52.520;10.528;2023-05-09T12:33:20;100735.91;;;23.29
76381;BMP280;65202;52.520;10.528;2023-05-09T12:36:00;100734.06;;;23.46
76381;BMP280;65202;52.520;10.528;2023-05-09T12:38:30;100736.94;;;22.99
76381;BMP280;65202;52.520;10.528;2023-05-09T12:41:08;100720.84;;;22.84
76381;BMP280;65202;52.520;10.528;2023-05-09T12:43:56;100715.41;;;23.33
76381;BMP280;65202;52.520;10.528;2023-05-09T12:46:23;100716.56;;;22.84
76381;BMP280;65202;52.520;10.528;2023-05-09T12:48:51;100713.88;;;23.13
76381;BMP280;65202;52.520;10.528;2023-05-09T12:51:19;100724.06;;;23.16
76381;BMP280;65202;52.520;10.528;2023-05-09T12:53:48;100715.41;;;23.38
76381;BMP280;65202;52.520;10.528;2023-05-09T12:56:17;100708.72;;;23.20
76381;BMP280;65202;52.520;10.528;2023-05-09T12:58:50;100711.38;;;23.05
76381;BMP280;65202;52.520;10.528;2023-05-09T13:01:25;100705.44;;;22.99
76381;BMP280;65202;52.520;10.528;2023-05-09T13:04:01;100699.44;;;23.07
76381;BMP280;65202;52.520;10.528;2023-05-09T13:06:30;100717.25;;;23.15
76381;BMP280;65202;52.520;10.528;2023-05-09T13:08:59;100705.63;;;22.63
76381;BMP280;65202;52.520;10.528;2023-05-09T13:11:28;100701.19;;;23.02
76381;BMP280;65202;52.520;10.528;2023-05-09T13:13:56;100708.09;;;22.81
76381;BMP280;65202;52.520;10.528;2023-05-09T13:16:24;100695.06;;;23.24
76381;BMP280;65202;52.520;10.528;2023-05-09T13:18:51;100703.03;;;22.72
76381;BMP280;65202;52.520;10.528;2023-05-09T13:21:18;100692.81;;;22.75
76381;BMP280;65202;52.520;10.528;2023-05-09T13:23:46;100696.41;;;22.37
76381;BMP280;65202;52.520;10.528;2023-05-09T13:26:15;100706.50;;;22.64
76381;BMP280;65202;52.520;10.528;2023-05-09T13:28:43;100694.56;;;22.69
76381;BMP280;65202;52.520;10.528;2023-05-09T13:31:10;100684.13;;;22.98
76381;BMP280;65202;52.520;10.528;2023-05-09T13:33:37;100688.53;;;22.77
76381;BMP280;65202;52.520;10.528;2023-05-09T13:36:05;100681.78;;;22.67
76381;BMP280;65202;52.520;10.528;2023-05-09T13:38:33;100686.00;;;22.76
76381;BMP280;65202;52.520;10.528;2023-05-09T13:41:05;100671.69;;;22.51
76381;BMP280;65202;52.520;10.528;2023-05-09T13:43:33;100683.53;;;22.61
76381;BMP280;65202;52.520;10.528;2023-05-09T13:46:02;100673.38;;;22.50
76381;BMP280;65202;52.520;10.528;2023-05-09T13:48:29;100672.50;;;22.57
76381;BMP280;65202;52.520;10.528;2023-05-09T13:50:56;100679.34;;;22.48
76381;BMP280;65202;52.520;10.528;2023-05-09T13:53:25;100650.34;;;22.64
76381;BMP280;65202;52.520;10.528;2023-05-09T13:55:52;100651.00;;;22.91
76381;BMP280;65202;52.520;10.528;2023-05-09T13:58:20;100655.44;;;22.62
76381;BMP280;65202;52.520;10.528;2023-05-09T14:00:47;100657.22;;;22.53
76381;BMP280;65202;52.520;10.528;2023-05-09T14:03:14;100646.78;;;22.90
76381;BMP280;65202;52.520;10.528;2023-05-09T14:05:41;100652.22;;;22.35
76381;BMP280;65202;52.520;10.528;2023-05-09T14:08:08;100653.97;;;22.28
76381;BMP280;65202;52.520;10.528;2023-05-09T14:10:36;100636.63;;;22.81